Time;durP1;ratioP1;P1;durP2;ratioP2;P2;SDS_P1;SDS_P2;PMS_P1;PMS_P2;Temp;Humidity;BMP_temperature;BMP_pressure;BME280_temperature;BME280_humidity;BME280_pressure;Samples;Min_cycle;Max_cycle;Signal;HPM_P1;HPM_P2
2022/03/16 00:01:07;;;;;;;45.63;23.80;;;;;;;4.69;100.00;101316.72;5057809;28;20278;-73
2022/03/16 00:03:34;;;;;;;40.70;20.97;;;;;;;4.70;100.00;101311.69;5055631;28;20215;-75
2022/03/16 00:06:02;;;;;;;38.70;20.37;;;;;;;4.84;100.00;101309.91;5054267;28;20200;-73
2022/03/16 00:08:29;;;;;;;50.43;22.53;;;;;;;4.78;100.00;101301.88;5069426;28;20195;-73
2022/03/16 00:10:57;;;;;;;52.70;22.57;;;;;;;4.67;100.00;101282.38;5072049;28;20198;-73
2022/03/16 00:13:23;;;;;;;45.67;21.10;;;;;;;4.42;100.00;101239.84;5064306;28;20195;-75
2022/03/16 00:15:50;;;;;;;44.60;19.83;;;;;;;4.52;100.00;101259.25;5053150;28;20674;-74
2022/03/16 00:18:19;;;;;;;42.87;20.80;;;;;;;4.48;100.00;101268.47;5072694;28;20593;-74
2022/03/16 00:20:47;;;;;;;37.27;21.30;;;;;;;4.40;100.00;101258.53;5074242;28;20191;-75
2022/03/16 00:23:16;;;;;;;42.23;20.17;;;;;;;4.49;100.00;101259.94;5065201;28;20668;-74
2022/03/16 00:25:42;;;;;;;42.77;19.87;;;;;;;4.54;100.00;101270.50;5065538;28;20198;-74
2022/03/16 00:28:09;;;;;;;35.07;19.67;;;;;;;4.55;100.00;101267.13;5058095;28;20218;-75
2022/03/16 00:30:37;;;;;;;50.93;19.87;;;;;;;4.54;100.00;101265.34;5069863;28;20192;-76
2022/03/16 00:33:04;;;;;;;41.40;19.27;;;;;;;4.39;100.00;101260.22;5060995;28;20195;-75
2022/03/16 00:35:31;;;;;;;37.43;19.13;;;;;;;4.40;100.00;101268.81;5067490;28;20202;-74
2022/03/16 00:37:58;;;;;;;43.00;19.03;;;;;;;4.34;100.00;101251.38;5053498;28;20195;-75
2022/03/16 00:40:26;;;;;;;38.77;19.90;;;;;;;4.42;100.00;101233.84;5054580;28;20215;-75
2022/03/16 00:42:53;;;;;;;35.70;19.57;;;;;;;4.48;100.00;101240.22;5060665;28;20226;-75
2022/03/16 00:45:20;;;;;;;39.93;20.40;;;;;;;4.48;100.00;101232.53;5052746;28;20306;-75
2022/03/16 00:47:47;;;;;;;40.03;20.27;;;;;;;4.45;100.00;101209.25;5053360;28;20200;-74
2022/03/16 00:50:13;;;;;;;38.37;20.37;;;;;;;4.58;100.00;101235.59;5057017;28;20692;-75
2022/03/16 00:52:40;;;;;;;40.27;21.57;;;;;;;4.48;100.00;101213.66;5072796;28;20194;-74
2022/03/16 00:55:08;;;;;;;34.27;19.87;;;;;;;4.38;100.00;101216.50;5061881;28;20195;-74
2022/03/16 00:57:36;;;;;;;44.53;21.97;;;;;;;4.52;100.00;101237.81;5054255;28;20199;-74
2022/03/16 01:00:04;;;;;;;43.20;20.47;;;;;;;4.54;100.00;101238.78;5054790;28;20188;-74
2022/03/16 01:02:31;;;;;;;50.10;22.80;;;;;;;4.45;100.00;101205.78;5047607;28;20227;-74
2022/03/16 01:04:58;;;;;;;40.40;20.13;;;;;;;4.49;100.00;101206.03;5062269;28;20259;-74
2022/03/16 01:07:25;;;;;;;40.20;20.23;;;;;;;4.29;100.00;101150.09;5068815;28;20205;-74
2022/03/16 01:09:53;;;;;;;46.83;20.50;;;;;;;4.59;100.00;101191.16;5055792;28;20643;-74
2022/03/16 01:12:20;;;;;;;45.83;21.40;;;;;;;4.57;100.00;101211.59;5059232;28;20252;-74
2022/03/16 01:14:48;;;;;;;43.53;20.87;;;;;;;4.63;100.00;101216.22;5071966;28;20646;-74
2022/03/16 01:17:15;;;;;;;42.40;20.80;;;;;;;4.61;100.00;101202.38;5058931;28;20667;-74
2022/03/16 01:19:42;;;;;;;36.37;20.23;;;;;;;4.64;100.00;101193.16;5060319;28;20609;-74
2022/03/16 01:22:09;;;;;;;33.57;18.67;;;;;;;4.68;100.00;101179.69;5054603;28;20238;-74
2022/03/16 01:24:35;;;;;;;36.50;19.33;;;;;;;4.65;100.00;101183.78;5053514;28;20200;-74
2022/03/16 01:27:03;;;;;;;40.73;20.00;;;;;;;4.67;100.00;101197.63;5052450;28;20678;-74
2022/03/16 01:29:29;;;;;;;37.07;17.27;;;;;;;4.71;100.00;101197.00;5060496;28;20597;-74
2022/03/16 01:31:57;;;;;;;37.90;19.33;;;;;;;4.78;100.00;101193.97;5060517;28;20685;-74
2022/03/16 01:34:25;;;;;;;36.93;17.57;;;;;;;4.88;100.00;101191.09;5053774;28;20207;-74
2022/03/16 01:36:52;;;;;;;38.00;18.23;;;;;;;4.94;100.00;101197.47;5053169;28;20318;-74
2022/03/16 01:39:19;;;;;;;34.53;17.17;;;;;;;5.02;100.00;101194.41;5052350;28;20192;-75
2022/03/16 01:41:46;;;;;;;34.83;17.13;;;;;;;5.04;100.00;101179.94;5064391;28;20191;-74
2022/03/16 01:44:12;;;;;;;37.73;19.57;;;;;;;4.92;100.00;101172.47;5051735;28;20191;-74
2022/03/16 01:46:39;;;;;;;36.20;17.77;;;;;;;5.02;100.00;101181.56;5051837;28;20231;-74
2022/03/16 01:49:07;;;;;;;33.70;17.47;;;;;;;5.07;100.00;101157.88;5052346;28;20187;-74
2022/03/16 01:51:35;;;;;;;33.67;17.67;;;;;;;5.06;100.00;101160.38;5061320;28;20692;-74
2022/03/16 01:54:03;;;;;;;36.03;17.60;;;;;;;5.09;100.00;101165.69;5054418;28;20200;-74
2022/03/16 01:56:30;;;;;;;36.53;18.03;;;;;;;4.87;100.00;101137.94;5051917;28;20192;-74
2022/03/16 01:58:57;;;;;;;31.67;17.27;;;;;;;5.04;100.00;101178.28;5058351;28;20194;-74
2022/03/16 02:01:24;;;;;;;38.17;18.30;;;;;;;4.91;100.00;101145.00;5059697;28;20654;-74
2022/03/16 02:03:51;;;;;;;40.83;19.00;;;;;;;4.99;100.00;101165.16;5047950;28;20230;-74
2022/03/16 02:06:19;;;;;;;37.43;17.77;;;;;;;4.93;100.00;101162.28;5052317;28;20203;-74
2022/03/16 02:08:46;;;;;;;40.83;18.20;;;;;;;4.70;100.00;101113.00;5067940;28;20224;-74
2022/03/16 02:11:14;;;;;;;33.63;17.33;;;;;;;4.90;100.00;101141.56;5063520;28;20215;-74
2022/03/16 02:13:40;;;;;;;38.07;18.50;;;;;;;4.50;100.00;101112.78;5058111;28;20657;-74
2022/03/16 02:16:08;;;;;;;34.40;19.33;;;;;;;4.56;100.00;101131.91;5071039;28;20187;-74
2022/03/16 02:18:35;;;;;;;40.70;20.63;;;;;;;4.44;100.00;101083.31;5071823;28;20290;-74
2022/03/16 02:21:06;;;;;;;33.23;18.60;;;;;;;4.87;100.00;101122.50;5065158;28;20245;-74
2022/03/16 02:23:35;;;;;;;32.70;16.97;;;;;;;4.47;100.00;101043.28;5052009;28;20312;-74
2022/03/16 02:26:02;;;;;;;38.70;19.60;;;;;;;4.94;100.00;101111.75;5051552;28;20194;-74
2022/03/16 02:28:28;;;;;;;27.40;16.73;;;;;;;5.02;100.00;101107.94;5065360;28;20206;-74
2022/03/16 02:30:55;;;;;;;30.03;15.63;;;;;;;5.01;100.00;101116.44;5053080;28;20666;-74
2022/03/16 02:33:22;;;;;;;35.33;17.67;;;;;;;4.98;100.00;101113.69;5068812;28;20202;-74
2022/03/16 02:35:50;;;;;;;37.20;18.67;;;;;;;4.70;100.00;101041.09;5070103;28;20195;-74
2022/03/16 02:38:17;;;;;;;38.40;19.50;;;;;;;4.98;100.00;101108.56;5071021;28;20275;-74
2022/03/16 02:40:45;;;;;;;35.23;18.73;;;;;;;4.43;100.00;101079.88;5054187;28;20203;-74
2022/03/16 02:43:12;;;;;;;42.40;18.67;;;;;;;4.58;100.00;101107.19;5061627;28;20225;-74
2022/03/16 02:45:39;;;;;;;85.77;35.07;;;;;;;4.38;100.00;101114.69;5070229;28;20230;-76
2022/03/16 02:48:06;;;;;;;46.87;23.17;;;;;;;3.94;100.00;101021.47;5052347;28;20188;-74
2022/03/16 02:50:33;;;;;;;40.73;19.73;;;;;;;4.12;100.00;101068.69;5066496;28;20202;-74
2022/03/16 02:53:01;;;;;;;41.00;20.80;;;;;;;3.95;100.00;101043.78;5071897;28;20198;-74
2022/03/16 02:55:27;;;;;;;41.63;20.40;;;;;;;4.02;100.00;101097.22;5067088;28;20636;-74
2022/03/16 02:57:56;;;;;;;33.57;17.13;;;;;;;3.99;100.00;101102.16;5061061;28;20207;-74
2022/03/16 03:00:26;;;;;;;39.50;19.47;;;;;;;3.87;100.00;101097.22;5057421;28;20595;-73
2022/03/16 03:02:53;;;;;;;35.40;17.97;;;;;;;3.82;100.00;101098.59;5052601;28;20219;-74
2022/03/16 03:05:20;;;;;;;31.27;17.40;;;;;;;3.82;100.00;101088.34;5059071;28;20189;-74
2022/03/16 03:07:47;;;;;;;30.27;17.20;;;;;;;3.76;100.00;101082.00;5071232;28;20248;-74
2022/03/16 03:10:14;;;;;;;33.70;17.57;;;;;;;3.73;100.00;101077.56;5059119;28;20242;-74
2022/03/16 03:12:41;;;;;;;28.57;17.00;;;;;;;3.90;100.00;101082.00;5050671;28;20207;-74
2022/03/16 03:15:13;;;;;;;45.00;20.20;;;;;;;3.65;100.00;101036.88;5050521;28;20258;-74
2022/03/16 03:17:40;;;;;;;38.47;19.83;;;;;;;3.81;100.00;101062.63;5051473;28;20199;-74
2022/03/16 03:20:08;;;;;;;37.63;18.60;;;;;;;3.91;100.00;101075.19;5061501;28;20657;-73
2022/03/16 03:22:35;;;;;;;35.27;18.10;;;;;;;3.91;100.00;101076.06;5061143;28;20203;-74
2022/03/16 03:25:03;;;;;;;37.07;18.73;;;;;;;4.04;100.00;101067.38;5051216;28;20198;-74
2022/03/16 03:27:32;;;;;;;36.80;17.43;;;;;;;4.00;100.00;101052.59;5054203;28;20200;-74
2022/03/16 03:29:59;;;;;;;40.73;19.13;;;;;;;3.90;100.00;101060.56;5063905;28;20202;-74
2022/03/16 03:32:27;;;;;;;34.17;18.17;;;;;;;3.79;100.00;101062.53;5072812;28;20190;-74
2022/03/16 03:34:55;;;;;;;29.73;17.63;;;;;;;3.79;100.00;101034.31;5055789;28;20195;-74
2022/03/16 03:37:25;;;;;;;27.60;16.17;;;;;;;4.01;100.00;101049.25;5055400;28;20279;-73
2022/03/16 03:39:52;;;;;;;30.00;17.67;;;;;;;3.95;100.00;101054.03;5061977;28;20183;-74
2022/03/16 03:42:19;;;;;;;29.43;17.60;;;;;;;3.99;100.00;101048.28;5073944;28;20598;-73
2022/03/16 03:44:46;;;;;;;29.43;17.23;;;;;;;3.82;100.00;101003.72;5060205;28;20226;-74
2022/03/16 03:47:13;;;;;;;30.40;17.63;;;;;;;3.90;100.00;100999.00;5073846;28;20235;-74
2022/03/16 03:49:42;;;;;;;36.60;20.33;;;;;;;4.20;100.00;101034.09;5069185;28;20246;-74
2022/03/16 03:52:11;;;;;;;35.93;18.97;;;;;;;4.27;100.00;101032.75;5073955;28;20236;-74
2022/03/16 03:54:37;;;;;;;34.43;17.60;;;;;;;4.15;100.00;100986.75;5072403;28;20210;-74
2022/03/16 03:57:05;;;;;;;27.23;16.27;;;;;;;4.42;100.00;101023.31;5072649;28;20194;-73
2022/03/16 03:59:32;;;;;;;27.00;16.87;;;;;;;4.52;100.00;101023.00;5059077;28;20222;-74
2022/03/16 04:01:59;;;;;;;34.00;16.47;;;;;;;4.55;100.00;101006.88;5072582;28;20199;-74
2022/03/16 04:04:25;;;;;;;30.10;15.10;;;;;;;4.57;100.00;100998.44;5055167;28;20592;-74
2022/03/16 04:06:54;;;;;;;20.33;13.60;;;;;;;4.70;100.00;100995.75;5060546;28;20653;-75
2022/03/16 04:09:20;;;;;;;88.50;36.33;;;;;;;4.89;100.00;100992.44;5071798;28;20199;-73
2022/03/16 04:11:47;;;;;;;22.60;14.83;;;;;;;5.10;100.00;100988.38;5071409;28;20241;-76
2022/03/16 04:14:15;;;;;;;36.37;16.13;;;;;;;5.15;100.00;101004.94;5072649;28;20198;-73
2022/03/16 04:16:42;;;;;;;32.00;17.40;;;;;;;5.16;100.00;101000.69;5072619;28;20194;-72
2022/03/16 04:19:09;;;;;;;31.13;17.03;;;;;;;5.12;100.00;101002.22;5067788;28;20191;-73
2022/03/16 04:21:36;;;;;;;65.73;30.97;;;;;;;5.00;100.00;100978.44;5064757;28;20199;-73
2022/03/16 04:24:05;;;;;;;55.00;26.87;;;;;;;5.02;100.00;100993.97;5071063;28;20708;-73
2022/03/16 04:26:31;;;;;;;58.33;25.50;;;;;;;4.95;100.00;100990.19;5073422;28;20191;-73
2022/03/16 04:28:58;;;;;;;46.20;24.50;;;;;;;4.78;100.00;100963.59;5069951;28;20202;-74
2022/03/16 04:31:25;;;;;;;45.20;23.20;;;;;;;4.86;100.00;100982.88;5057180;28;20219;-73
2022/03/16 04:33:52;;;;;;;45.30;23.07;;;;;;;4.76;100.00;100980.66;5053628;28;20204;-72
2022/03/16 04:36:19;;;;;;;46.53;22.63;;;;;;;4.73;100.00;100980.50;5070901;28;20252;-74
2022/03/16 04:38:45;;;;;;;50.43;24.50;;;;;;;4.57;100.00;100977.91;5057583;28;20763;-70
2022/03/16 04:41:14;;;;;;;59.67;22.77;;;;;;;4.68;100.00;100983.59;5065723;28;20195;-72
2022/03/16 04:43:40;;;;;;;49.70;20.73;;;;;;;4.53;100.00;100985.38;5066740;28;20222;-72
2022/03/16 04:46:07;;;;;;;49.57;23.00;;;;;;;4.40;100.00;100971.88;5071276;28;20615;-73
2022/03/16 04:48:34;;;;;;;41.13;21.40;;;;;;;4.18;100.00;100970.63;5063640;28;20692;-73
2022/03/16 04:51:02;;;;;;;39.87;20.43;;;;;;;4.24;100.00;100966.72;5053546;28;20214;-73
2022/03/16 04:53:29;;;;;;;43.77;21.47;;;;;;;4.19;100.00;100968.16;5052924;28;20195;-72
2022/03/16 04:55:55;;;;;;;51.07;24.03;;;;;;;4.04;100.00;100972.44;5053367;28;20196;-71
2022/03/16 04:58:24;;;;;;;58.87;27.43;;;;;;;4.06;100.00;100986.25;5052002;28;20192;-72
2022/03/16 05:00:50;;;;;;;65.47;35.00;;;;;;;4.25;100.00;100973.59;5056773;28;20196;-72
2022/03/16 05:03:17;;;;;;;45.73;22.53;;;;;;;4.25;100.00;100971.03;5068470;28;20283;-72
2022/03/16 05:05:44;;;;;;;42.83;21.70;;;;;;;4.16;100.00;100977.38;5067429;28;20187;-72
2022/03/16 05:08:11;;;;;;;43.40;22.17;;;;;;;4.04;100.00;100977.56;5055119;28;20199;-72
2022/03/16 05:10:38;;;;;;;35.23;18.07;;;;;;;4.01;100.00;100972.28;5052834;28;20199;-72
2022/03/16 05:13:04;;;;;;;36.00;19.97;;;;;;;3.93;100.00;100986.34;5061330;28;20202;-73
2022/03/16 05:15:33;;;;;;;28.13;17.67;;;;;;;3.93;100.00;100973.53;5072162;28;20195;-71
2022/03/16 05:17:59;;;;;;;33.07;18.60;;;;;;;3.99;100.00;100972.19;5065393;28;20195;-72
2022/03/16 05:20:26;;;;;;;29.37;17.07;;;;;;;4.09;100.00;100965.88;5058041;28;20253;-72
2022/03/16 05:22:54;;;;;;;32.07;19.50;;;;;;;4.06;100.00;100964.84;5055501;28;20191;-72
2022/03/16 05:25:24;;;;;;;39.87;19.60;;;;;;;4.03;100.00;100952.72;5072763;28;20191;-71
2022/03/16 05:27:51;;;;;;;65.60;28.80;;;;;;;3.95;100.00;100956.56;5071814;28;20272;-72
2022/03/16 05:30:20;;;;;;;56.27;27.57;;;;;;;4.07;100.00;100967.47;5056061;28;20637;-72
2022/03/16 05:32:51;;;;;;;49.40;25.93;;;;;;;3.99;100.00;100948.22;5052346;28;20195;-72
2022/03/16 05:35:18;;;;;;;47.13;27.50;;;;;;;4.10;100.00;100959.06;5052608;28;20272;-72
2022/03/16 05:37:44;;;;;;;46.20;25.40;;;;;;;4.17;100.00;100964.63;5052385;28;20191;-72
2022/03/16 05:40:12;;;;;;;43.27;25.33;;;;;;;4.15;100.00;100958.50;5052247;28;20196;-72
2022/03/16 05:42:39;;;;;;;41.67;21.03;;;;;;;4.17;100.00;100959.50;5052179;28;20203;-73
2022/03/16 05:45:08;;;;;;;35.60;20.63;;;;;;;4.31;100.00;100956.00;5051278;28;20234;-72
2022/03/16 05:47:35;;;;;;;33.10;19.80;;;;;;;4.33;100.00;100949.25;5052123;28;20218;-74
2022/03/16 05:50:04;;;;;;;33.10;18.90;;;;;;;4.44;100.00;100944.69;5037422;28;20292;-73
2022/03/16 05:52:32;;;;;;;35.87;19.37;;;;;;;4.56;100.00;100949.59;5032092;28;20203;-72
2022/03/16 05:55:00;;;;;;;57.90;20.70;;;;;;;4.60;100.00;100956.66;5032382;28;20196;-73
2022/03/16 05:57:27;;;;;;;39.13;21.43;;;;;;;4.86;100.00;100951.16;5032284;28;20188;-73
2022/03/16 05:59:53;;;;;;;46.60;25.07;;;;;;;4.84;100.00;100906.53;5040313;28;20191;-73
2022/03/16 06:02:20;;;;;;;56.47;28.20;;;;;;;4.76;100.00;100918.09;5060479;28;20195;-73
2022/03/16 06:04:47;;;;;;;55.30;27.33;;;;;;;4.64;100.00;100881.53;5069842;28;20218;-73
2022/03/16 06:07:15;;;;;;;44.97;24.33;;;;;;;4.95;100.00;100928.53;5069995;28;20803;-74
2022/03/16 06:09:44;;;;;;;77.10;35.13;;;;;;;5.05;100.00;100943.59;5061715;28;20191;-73
2022/03/16 06:12:11;;;;;;;54.07;26.53;;;;;;;5.14;100.00;100959.47;5069405;28;20665;-73
2022/03/16 06:14:38;;;;;;;65.30;31.27;;;;;;;5.25;100.00;100958.31;5063527;28;20206;-75
2022/03/16 06:17:05;;;;;;;158.20;60.60;;;;;;;5.30;100.00;100962.03;5060166;28;20198;-73
2022/03/16 06:19:32;;;;;;;135.27;50.70;;;;;;;5.24;100.00;100960.84;5061068;28;20685;-74
2022/03/16 06:22:00;;;;;;;88.37;40.60;;;;;;;5.31;100.00;100963.78;5051793;28;20199;-73
2022/03/16 06:24:28;;;;;;;69.67;29.37;;;;;;;5.40;100.00;100969.38;5051503;28;20231;-73
2022/03/16 06:26:57;;;;;;;59.40;25.03;;;;;;;5.00;100.00;100957.88;5052957;28;20191;-72
2022/03/16 06:29:24;;;;;;;50.17;26.67;;;;;;;5.09;100.00;100955.81;5071484;28;20654;-72
2022/03/16 06:31:51;;;;;;;41.10;21.43;;;;;;;5.22;100.00;100954.72;5065529;28;20195;-72
2022/03/16 06:34:18;;;;;;;36.73;20.40;;;;;;;5.26;100.00;100957.53;5051604;28;20199;-72
2022/03/16 06:36:45;;;;;;;94.63;28.97;;;;;;;4.92;100.00;100887.25;5051573;28;20195;-77
2022/03/16 06:39:11;;;;;;;48.07;21.00;;;;;;;5.41;100.00;100947.13;5059514;28;20561;-76
2022/03/16 06:41:40;;;;;;;54.73;20.50;;;;;;;5.29;100.00;100949.97;5051860;28;20203;-74
2022/03/16 06:44:06;;;;;;;52.67;22.20;;;;;;;5.02;100.00;100948.59;5050430;28;20285;-73
2022/03/16 06:46:33;;;;;;;56.20;22.40;;;;;;;5.02;100.00;100940.88;5050969;28;20230;-72
2022/03/16 06:49:00;;;;;;;54.47;26.33;;;;;;;5.20;100.00;100944.38;5051369;28;20669;-74
2022/03/16 06:51:27;;;;;;;116.07;42.83;;;;;;;5.23;100.00;100926.53;5051717;28;20249;-74
2022/03/16 06:53:54;;;;;;;49.73;24.43;;;;;;;5.48;100.00;100947.50;5051558;28;20202;-74
2022/03/16 06:56:20;;;;;;;82.23;30.67;;;;;;;5.66;100.00;100941.47;5051408;28;20195;-73
2022/03/16 06:58:49;;;;;;;45.30;21.67;;;;;;;5.76;100.00;100943.69;5051303;28;20192;-74
2022/03/16 07:01:15;;;;;;;40.43;19.73;;;;;;;5.72;100.00;100941.75;5051981;28;20253;-73
2022/03/16 07:03:43;;;;;;;58.20;25.27;;;;;;;5.68;100.00;100945.00;5055269;28;20192;-74
2022/03/16 07:06:10;;;;;;;82.00;31.27;;;;;;;5.65;100.00;100942.28;5055116;28;20679;-73
2022/03/16 07:08:37;;;;;;;84.03;31.10;;;;;;;5.87;100.00;100947.69;5055410;28;20199;-73
2022/03/16 07:11:04;;;;;;;80.10;31.90;;;;;;;5.84;100.00;100920.09;5054918;28;20191;-73
2022/03/16 07:13:31;;;;;;;71.80;29.80;;;;;;;6.13;100.00;100942.06;5055374;28;20215;-73
2022/03/16 07:15:59;;;;;;;47.00;24.33;;;;;;;6.17;100.00;100943.94;5054523;28;20199;-73
2022/03/16 07:18:26;;;;;;;46.47;22.17;;;;;;;6.19;100.00;100937.19;5055167;28;20191;-73
2022/03/16 07:20:52;;;;;;;40.53;20.77;;;;;;;6.40;100.00;100950.16;5055351;28;20603;-73
2022/03/16 07:23:19;;;;;;;52.30;21.00;;;;;;;6.45;100.00;100933.25;5055410;28;20195;-75
2022/03/16 07:25:48;;;;;;;36.90;19.37;;;;;;;6.71;100.00;100929.22;5054689;28;20416;-73
2022/03/16 07:28:16;;;;;;;37.23;18.03;;;;;;;6.51;100.00;100930.03;5055209;28;20204;-73
2022/03/16 07:30:43;;;;;;;36.30;18.67;;;;;;;6.05;100.00;100904.78;5055082;28;20199;-73
2022/03/16 07:33:12;;;;;;;27.57;16.33;;;;;;;5.50;100.00;100868.72;5054843;28;20240;-72
2022/03/16 07:35:40;;;;;;;28.40;16.73;;;;;;;5.43;100.00;100933.53;5054594;28;20195;-72
2022/03/16 07:38:08;;;;;;;34.70;17.57;;;;;;;5.40;100.00;100935.06;5054428;28;20206;-74
2022/03/16 07:40:36;;;;;;;30.10;17.50;;;;;;;5.46;100.00;100922.50;5054491;28;20192;-73
2022/03/16 07:43:03;;;;;;;26.03;14.23;;;;;;;5.19;100.00;100924.63;5054651;28;20191;-73
2022/03/16 07:45:30;;;;;;;35.63;17.87;;;;;;;5.24;100.00;100919.72;5053450;28;20246;-73
2022/03/16 07:47:57;;;;;;;33.97;18.07;;;;;;;5.55;100.00;100922.97;5054611;28;20199;-71
2022/03/16 07:50:26;;;;;;;32.67;17.47;;;;;;;5.88;100.00;100929.75;5054533;28;20257;-71
2022/03/16 07:52:54;;;;;;;27.27;15.90;;;;;;;6.13;100.00;100925.75;5054530;28;20220;-71
2022/03/16 07:55:21;;;;;;;29.73;16.40;;;;;;;6.22;100.00;100931.31;5054132;28;20204;-72
2022/03/16 07:57:49;;;;;;;35.57;18.30;;;;;;;6.44;100.00;100945.22;5054362;28;20210;-71
2022/03/16 08:00:16;;;;;;;53.03;25.20;;;;;;;7.11;100.00;100939.56;5054330;28;20199;-74
2022/03/16 08:02:44;;;;;;;31.73;18.57;;;;;;;7.16;100.00;100946.69;5054442;28;20196;-72
2022/03/16 08:05:12;;;;;;;24.10;14.40;;;;;;;6.87;100.00;100952.28;5054228;28;20314;-72
2022/03/16 08:07:40;;;;;;;19.53;12.50;;;;;;;6.91;100.00;100924.13;5054264;28;20204;-72
2022/03/16 08:10:08;;;;;;;34.63;16.90;;;;;;;7.16;100.00;100962.16;5053859;28;20670;-72
2022/03/16 08:12:35;;;;;;;23.97;13.20;;;;;;;7.22;100.00;100964.09;5053506;28;20768;-72
2022/03/16 08:15:02;;;;;;;21.27;14.10;;;;;;;7.12;100.00;100947.38;5053591;28;20195;-72
2022/03/16 08:17:29;;;;;;;23.20;14.27;;;;;;;7.21;100.00;100960.63;5054127;28;20257;-72
2022/03/16 08:19:57;;;;;;;18.70;12.23;;;;;;;7.29;100.00;100971.28;5054095;28;20187;-72
2022/03/16 08:22:29;;;;;;;22.20;12.93;;;;;;;7.31;100.00;100967.94;5053894;28;20203;-72
2022/03/16 08:24:58;;;;;;;22.30;12.80;;;;;;;7.34;100.00;100955.19;5053795;28;20246;-72
2022/03/16 08:27:25;;;;;;;26.48;13.40;;;;;;;7.40;100.00;100963.19;5053594;28;20744;-72
2022/03/16 08:29:52;;;;;;;25.63;13.20;;;;;;;7.30;100.00;100961.03;5053647;28;20221;-73
2022/03/16 08:32:19;;;;;;;23.23;13.50;;;;;;;7.11;100.00;100955.91;5053519;28;20199;-72
2022/03/16 08:34:47;;;;;;;23.83;15.60;;;;;;;6.70;100.00;100948.09;5053594;28;20313;-72
2022/03/16 08:37:13;;;;;;;26.03;13.93;;;;;;;6.08;100.00;100938.41;5053811;28;20605;-72
2022/03/16 08:39:42;;;;;;;25.43;13.90;;;;;;;5.87;100.00;100916.81;5053753;28;20199;-72
2022/03/16 08:42:12;;;;;;;30.70;17.30;;;;;;;5.95;100.00;100933.50;5054013;28;20192;-72
2022/03/16 08:44:39;;;;;;;27.70;14.40;;;;;;;5.77;100.00;100924.88;5052488;28;20226;-73
2022/03/16 08:47:06;;;;;;;32.20;17.73;;;;;;;5.74;100.00;100886.13;5052935;28;20697;-72
2022/03/16 08:49:33;;;;;;;41.40;20.37;;;;;;;5.79;100.00;100906.09;5053153;28;20195;-72
2022/03/16 08:52:01;;;;;;;41.80;19.33;;;;;;;5.92;100.00;100899.91;5053390;28;20215;-72
2022/03/16 08:54:28;;;;;;;61.47;22.80;;;;;;;5.73;100.00;100898.13;5053053;28;20211;-72
2022/03/16 08:56:54;;;;;;;73.13;25.00;;;;;;;5.66;100.00;100893.50;5053300;28;20199;-71
2022/03/16 08:59:23;;;;;;;77.33;28.20;;;;;;;5.95;100.00;100885.47;5051666;28;20200;-72
2022/03/16 09:01:51;;;;;;;85.57;31.43;;;;;;;5.81;100.00;100903.63;5052286;28;20191;-72
2022/03/16 09:04:18;;;;;;;97.37;35.53;;;;;;;6.03;100.00;100872.06;5052810;28;20195;-72
2022/03/16 09:06:45;;;;;;;74.70;33.60;;;;;;;6.34;100.00;100901.84;5053123;28;20192;-72
2022/03/16 09:09:12;;;;;;;60.93;25.67;;;;;;;6.28;100.00;100916.13;5052814;28;20191;-72
2022/03/16 09:11:39;;;;;;;63.93;27.13;;;;;;;6.33;100.00;100915.53;5053467;28;20191;-71
2022/03/16 09:14:06;;;;;;;54.17;19.67;;;;;;;6.32;99.17;100918.03;5052426;28;20277;-72
2022/03/16 09:16:35;;;;;;;45.93;19.30;;;;;;;6.46;95.13;100925.56;5052950;28;20249;-72
2022/03/16 09:19:02;;;;;;;37.93;16.67;;;;;;;6.39;91.33;100920.06;5052972;28;20191;-72
2022/03/16 09:21:29;;;;;;;34.97;15.37;;;;;;;6.37;86.74;100927.75;5052785;28;20620;-72
2022/03/16 09:23:56;;;;;;;40.03;15.60;;;;;;;6.36;85.75;100902.78;5051901;28;20199;-73
2022/03/16 09:26:23;;;;;;;30.67;12.87;;;;;;;6.60;81.06;100928.75;5052317;28;20325;-73
2022/03/16 09:28:50;;;;;;;31.40;14.60;;;;;;;6.75;79.59;100926.84;5052506;28;20219;-73
2022/03/16 09:31:17;;;;;;;34.10;13.80;;;;;;;6.89;77.95;100936.06;5053320;28;20195;-73
2022/03/16 09:33:46;;;;;;;29.63;13.17;;;;;;;7.19;76.01;100938.19;5052769;28;20647;-73
2022/03/16 09:36:12;;;;;;;25.83;13.00;;;;;;;7.43;76.72;100932.34;5052497;28;20286;-74
2022/03/16 09:38:39;;;;;;;27.53;14.93;;;;;;;7.66;81.29;100929.81;5052774;28;20206;-73
2022/03/16 09:41:07;;;;;;;30.90;14.95;;;;;;;7.79;81.20;100926.91;5052405;28;20278;-73
2022/03/16 09:43:36;;;;;;;31.50;14.27;;;;;;;7.64;82.19;100874.66;5052453;28;20195;-73
2022/03/16 09:46:08;;;;;;;27.08;13.23;;;;;;;7.90;80.09;100894.63;5051311;28;20255;-73
2022/03/16 09:48:35;;;;;;;21.52;11.15;;;;;;;8.00;79.73;100932.91;5052048;28;20195;-73
2022/03/16 09:51:05;;;;;;;23.67;12.10;;;;;;;7.68;81.23;100886.88;5052128;28;20199;-73
2022/03/16 09:53:32;;;;;;;24.30;12.85;;;;;;;7.86;81.10;100929.78;5052388;28;20287;-74
2022/03/16 09:55:59;;;;;;;20.55;11.93;;;;;;;8.02;81.57;100927.81;5051902;28;20191;-73
2022/03/16 09:58:26;;;;;;;26.83;13.80;;;;;;;8.06;81.54;100922.81;5052043;28;20203;-73
2022/03/16 10:00:53;;;;;;;40.45;17.95;;;;;;;8.00;80.47;100891.59;5052667;28;20200;-74
2022/03/16 10:03:22;;;;;;;46.22;17.90;;;;;;;8.21;80.43;100918.22;5052171;28;20641;-73
2022/03/16 10:05:50;;;;;;;47.25;18.85;;;;;;;8.21;81.78;100919.91;5051729;28;20224;-73
2022/03/16 10:08:28;;;;;;;40.67;18.38;;;;;;;8.39;80.33;100918.06;5052078;28;20230;-73
2022/03/16 10:13:54;;;;;;;42.20;17.70;;;;;;;8.38;77.62;100924.94;5051824;28;20195;-73
2022/03/16 10:16:21;;;;;;;33.28;15.63;;;;;;;8.39;81.08;100924.13;5051251;28;20199;-73
2022/03/16 10:18:55;;;;;;;40.85;16.40;;;;;;;8.45;82.20;100932.06;5050211;28;20969;-73
2022/03/16 10:21:22;;;;;;;35.45;13.45;;;;;;;8.29;85.00;100932.34;5032358;28;20192;-73
2022/03/16 10:23:51;;;;;;;45.15;19.27;;;;;;;8.19;89.70;100934.50;5031590;28;20350;-73
2022/03/16 10:26:21;;;;;;;31.42;16.23;;;;;;;8.11;88.91;100897.16;5031636;28;20255;-74
2022/03/16 10:28:48;;;;;;;37.47;17.33;;;;;;;8.39;88.55;100937.03;5031864;28;20196;-74
2022/03/16 10:31:18;;;;;;;30.17;14.85;;;;;;;8.44;94.66;100927.75;5031428;28;20210;-75
2022/03/16 10:33:49;;;;;;;28.52;13.85;;;;;;;8.49;90.33;100916.72;5031751;28;20236;-72
2022/03/16 10:36:17;;;;;;;22.35;14.35;;;;;;;7.94;90.77;100870.69;5031755;28;20196;-71
2022/03/16 10:38:45;;;;;;;28.25;14.68;;;;;;;8.41;90.35;100908.69;5031490;28;20641;-70
2022/03/16 10:46:34;;;;;;;27.05;14.85;;;;;;;8.55;86.53;100904.88;5031734;28;20274;-71
2022/03/16 10:46:50;;;;;;;26.25;13.73;;;;;;;8.56;85.85;100905.78;5031223;28;20254;-70
2022/03/16 10:49:20;;;;;;;29.63;15.25;;;;;;;8.62;84.72;100899.13;5031604;28;20567;-70
2022/03/16 10:51:47;;;;;;;25.55;13.88;;;;;;;8.73;82.01;100913.31;5031589;28;20223;-70
2022/03/16 10:54:16;;;;;;;27.70;14.57;;;;;;;8.76;81.35;100910.81;5031618;28;20199;-70
2022/03/16 10:56:45;;;;;;;26.80;14.60;;;;;;;8.77;76.37;100907.41;5031342;28;20646;-71
2022/03/16 10:59:13;;;;;;;24.25;13.32;;;;;;;8.37;73.64;100915.44;5031128;28;20651;-71
2022/03/16 11:01:41;;;;;;;28.30;14.20;;;;;;;8.11;75.80;100904.91;5031589;28;20200;-70
2022/03/16 11:04:08;;;;;;;37.33;16.75;;;;;;;8.33;76.16;100913.56;5031043;28;20196;-70
2022/03/16 11:06:36;;;;;;;31.60;16.05;;;;;;;8.49;76.07;100919.28;5031482;28;20310;-71
2022/03/16 11:09:03;;;;;;;36.08;16.98;;;;;;;8.33;73.93;100910.97;5031125;28;20193;-71
2022/03/16 11:14:17;;;;;;;41.08;19.75;;;;;;;8.23;78.30;100915.72;5030336;28;20195;-72
2022/03/16 11:16:46;;;;;;;45.13;20.90;;;;;;;8.29;78.47;100910.78;5031041;28;20262;-72
2022/03/16 11:19:17;;;;;;;32.55;15.65;;;;;;;7.95;81.96;100918.94;5030945;28;20663;-72